createdAt,value
2018-07-22T00:00:14.000Z,99984
2018-07-22T00:01:14.000Z,99985
2018-07-22T00:03:14.000Z,99986
2018-07-22T00:04:43.000Z,99987
2018-07-22T00:06:14.000Z,99990
2018-07-22T00:08:14.000Z,99988
2018-07-22T00:09:43.000Z,99986
2018-07-22T00:11:14.000Z,99990
2018-07-22T00:13:14.000Z,99994
2018-07-22T00:15:14.000Z,99993
2018-07-22T00:16:14.000Z,99988
2018-07-22T00:18:14.000Z,99992
2018-07-22T00:20:14.000Z,99997
2018-07-22T00:22:14.000Z,100005
2018-07-22T00:23:14.000Z,100000
2018-07-22T00:25:14.000Z,99998
2018-07-22T00:26:14.000Z,99999
2018-07-22T00:27:14.000Z,99998
2018-07-22T00:28:14.000Z,100001
2018-07-22T00:33:14.000Z,100003
2018-07-22T00:35:00.000Z,100003
2018-07-22T00:37:00.000Z,100006
2018-07-22T00:38:00.000Z,100002
2018-07-22T00:40:00.000Z,100009
2018-07-22T00:41:45.000Z,100001
2018-07-22T00:42:45.000Z,100006
2018-07-22T00:44:00.000Z,100010
2018-07-22T00:45:00.000Z,100007
2018-07-22T00:47:00.000Z,100004
2018-07-22T00:49:00.000Z,100004
2018-07-22T00:51:00.000Z,100005
2018-07-22T00:53:00.000Z,100005
2018-07-22T00:54:45.000Z,100008
2018-07-22T00:56:00.000Z,100000
2018-07-22T00:57:00.000Z,100006
2018-07-22T00:58:45.000Z,100006
2018-07-22T01:00:00.000Z,100010
2018-07-22T01:02:00.000Z,100004
2018-07-22T01:03:00.000Z,100002
2018-07-22T01:05:00.000Z,100006
2018-07-22T01:06:00.000Z,100009
2018-07-22T01:07:45.000Z,100009
2018-07-22T01:09:00.000Z,100009
2018-07-22T01:11:00.000Z,100013
2018-07-22T01:12:00.000Z,100013
2018-07-22T01:13:00.000Z,100016
2018-07-22T01:15:00.000Z,100012
2018-07-22T01:17:00.000Z,100018
2018-07-22T01:19:00.000Z,100013
2018-07-22T01:20:45.000Z,100015
2018-07-22T01:22:00.000Z,100017
2018-07-22T01:24:00.000Z,100019
2018-07-22T01:25:00.000Z,100017
2018-07-22T01:27:00.000Z,100020
2018-07-22T01:28:00.000Z,100017
2018-07-22T01:30:00.000Z,100017
2018-07-22T01:32:00.000Z,100014
2018-07-22T01:33:00.000Z,100011
2018-07-22T01:35:00.000Z,100014
2018-07-22T01:36:45.000Z,100019
2018-07-22T01:39:00.000Z,100012
2018-07-22T01:40:00.000Z,100018
2018-07-22T01:42:00.000Z,100012
2018-07-22T01:43:00.000Z,100015
2018-07-22T01:44:00.000Z,100015
2018-07-22T01:45:45.000Z,100010
2018-07-22T01:47:00.000Z,100015
2018-07-22T01:49:00.000Z,100020
2018-07-22T01:51:00.000Z,100017
2018-07-22T01:52:00.000Z,100018
2018-07-22T01:53:45.000Z,100019
2018-07-22T01:55:00.000Z,100021
2018-07-22T01:57:00.000Z,100024
2018-07-22T01:58:45.000Z,100022
2018-07-22T02:00:00.000Z,100023
2018-07-22T02:02:00.000Z,100021
2018-07-22T02:04:00.000Z,100024
2018-07-22T02:05:00.000Z,100024
2018-07-22T02:06:00.000Z,100030
2018-07-22T02:07:45.000Z,100028
2018-07-22T02:09:00.000Z,100023
2018-07-22T02:11:00.000Z,100025
2018-07-22T02:13:00.000Z,100028
2018-07-22T02:15:00.000Z,100030
2018-07-22T02:17:00.000Z,100025
2018-07-22T02:18:00.000Z,100028
2018-07-22T02:20:00.000Z,100026
2018-07-22T02:22:00.000Z,100030
2018-07-22T02:23:00.000Z,100024
2018-07-22T02:25:00.000Z,100033
2018-07-22T02:26:45.000Z,100032
2018-07-22T02:28:00.000Z,100035
2018-07-22T02:30:00.000Z,100035
2018-07-22T02:32:00.000Z,100042
2018-07-22T02:33:30.000Z,100041
2018-07-22T02:35:00.000Z,100039
2018-07-22T02:37:00.000Z,100047
2018-07-22T02:39:00.000Z,100047
2018-07-22T02:41:00.000Z,100045
2018-07-22T02:43:00.000Z,100048
2018-07-22T02:45:00.000Z,100044
2018-07-22T02:46:30.000Z,100050
2018-07-22T02:48:00.000Z,100049
2018-07-22T02:49:00.000Z,100049
2018-07-22T02:51:00.000Z,100044
2018-07-22T02:53:00.000Z,100053
2018-07-22T02:54:00.000Z,100048
2018-07-22T02:56:00.000Z,100052
2018-07-22T02:57:00.000Z,100053
2018-07-22T02:59:00.000Z,100052
2018-07-22T03:01:00.000Z,100053
2018-07-22T03:02:00.000Z,100059
2018-07-22T03:03:45.000Z,100052
2018-07-22T03:05:00.000Z,100057
2018-07-22T03:06:00.000Z,100049
2018-07-22T03:07:00.000Z,100051
2018-07-22T03:09:00.000Z,100051
2018-07-22T03:10:00.000Z,100048
2018-07-22T03:11:00.000Z,100049
2018-07-22T03:13:00.000Z,100053
2018-07-22T03:15:00.000Z,100048
2018-07-22T03:17:00.000Z,100048
2018-07-22T03:19:00.000Z,100050
2018-07-22T03:20:00.000Z,100047
2018-07-22T03:21:45.000Z,100053
2018-07-22T03:23:00.000Z,100051
2018-07-22T03:25:00.000Z,100053
2018-07-22T03:27:00.000Z,100054
2018-07-22T03:28:00.000Z,100056
2018-07-22T03:29:00.000Z,100059
2018-07-22T03:31:00.000Z,100059
2018-07-22T03:33:00.000Z,100067
2018-07-22T03:34:00.000Z,100072
2018-07-22T03:36:00.000Z,100068
2018-07-22T03:37:00.000Z,100075
2018-07-22T03:39:00.000Z,100072
2018-07-22T03:40:00.000Z,100075
2018-07-22T03:42:00.000Z,100071
2018-07-22T03:43:00.000Z,100072
2018-07-22T03:45:00.000Z,100079
2018-07-22T03:47:00.000Z,100075
2018-07-22T03:48:45.000Z,100101
2018-07-22T03:50:00.000Z,100079
2018-07-22T03:51:45.000Z,100081
2018-07-22T03:53:00.000Z,100080
2018-07-22T03:54:00.000Z,100083
2018-07-22T03:56:00.000Z,100084
2018-07-22T03:58:00.000Z,100094
2018-07-22T03:59:00.000Z,100093
2018-07-22T04:00:00.000Z,100094
2018-07-22T04:02:00.000Z,100083
2018-07-22T04:03:00.000Z,100088
2018-07-22T04:04:45.000Z,100084
2018-07-22T04:06:00.000Z,100088
2018-07-22T04:08:00.000Z,100085
2018-07-22T04:10:00.000Z,100085
2018-07-22T04:12:00.000Z,100083
2018-07-22T04:13:00.000Z,100089
2018-07-22T04:15:00.000Z,100087
2018-07-22T04:17:00.000Z,100083
2018-07-22T04:18:00.000Z,100087
2018-07-22T04:20:00.000Z,100093
2018-07-22T04:22:00.000Z,100093
2018-07-22T04:23:00.000Z,100086
2018-07-22T04:25:00.000Z,100091
2018-07-22T04:27:00.000Z,100092
2018-07-22T04:29:00.000Z,100098
2018-07-22T04:31:00.000Z,100095
2018-07-22T04:33:00.000Z,100099
2018-07-22T04:35:00.000Z,100101
2018-07-22T04:37:00.000Z,100102
2018-07-22T04:39:00.000Z,100102
2018-07-22T04:41:00.000Z,100106
2018-07-22T04:43:00.000Z,100108
2018-07-22T04:44:45.000Z,100109
2018-07-22T04:46:00.000Z,100114
2018-07-22T04:47:45.000Z,100117
2018-07-22T04:49:00.000Z,100118
2018-07-22T04:51:00.000Z,100111
2018-07-22T04:53:00.000Z,100114
2018-07-22T04:54:00.000Z,100111
2018-07-22T04:56:00.000Z,100114
2018-07-22T04:57:45.000Z,100114
2018-07-22T04:59:00.000Z,100117
2018-07-22T05:01:00.000Z,100123
2018-07-22T05:03:00.000Z,100123
2018-07-22T05:05:00.000Z,100121
2018-07-22T05:06:00.000Z,100124
2018-07-22T05:08:00.000Z,100123
2018-07-22T05:10:00.000Z,100121
2018-07-22T05:12:00.000Z,100118
2018-07-22T05:14:00.000Z,100121
2018-07-22T05:15:45.000Z,100119
2018-07-22T05:17:00.000Z,100118
2018-07-22T05:18:00.000Z,100120
2018-07-22T05:20:00.000Z,100113
2018-07-22T05:21:00.000Z,100112
2018-07-22T05:22:00.000Z,100116
2018-07-22T05:24:00.000Z,100114
2018-07-22T05:25:00.000Z,100117
2018-07-22T05:27:00.000Z,100119
2018-07-22T05:28:00.000Z,100118
2018-07-22T05:30:00.000Z,100117
2018-07-22T05:31:00.000Z,100112
2018-07-22T05:32:29.000Z,100118
2018-07-22T05:34:00.000Z,100118
2018-07-22T05:36:00.000Z,100118
2018-07-22T05:37:00.000Z,100119
2018-07-22T05:39:00.000Z,100125
2018-07-22T05:40:00.000Z,100121
2018-07-22T05:42:00.000Z,100125
2018-07-22T05:43:45.000Z,100130
2018-07-22T05:45:00.000Z,100130
2018-07-22T05:46:00.000Z,100125
2018-07-22T05:48:00.000Z,100132
2018-07-22T05:49:00.000Z,100134
2018-07-22T05:51:00.000Z,100141
2018-07-22T05:52:45.000Z,100136
2018-07-22T05:54:00.000Z,100131
2018-07-22T05:56:00.000Z,100140
2018-07-22T05:57:00.000Z,100136
2018-07-22T05:58:45.000Z,100139
2018-07-22T06:00:00.000Z,100139
2018-07-22T06:01:00.000Z,100141
2018-07-22T06:02:00.000Z,100146
2018-07-22T06:04:00.000Z,100145
2018-07-22T06:06:00.000Z,100142
2018-07-22T06:08:00.000Z,100148
2018-07-22T06:09:00.000Z,100147
2018-07-22T06:10:45.000Z,100152
2018-07-22T06:12:00.000Z,100150
2018-07-22T06:14:00.000Z,100150
2018-07-22T06:16:00.000Z,100150
2018-07-22T06:18:00.000Z,100153
2018-07-22T06:19:00.000Z,100145
2018-07-22T06:21:00.000Z,100153
2018-07-22T06:23:00.000Z,100153
2018-07-22T06:24:00.000Z,100157
2018-07-22T06:26:00.000Z,100156
2018-07-22T06:28:00.000Z,100152
2018-07-22T06:30:00.000Z,100155
2018-07-22T06:31:00.000Z,100157
2018-07-22T06:32:00.000Z,100154
2018-07-22T06:33:45.000Z,100162
2018-07-22T06:35:00.000Z,100158
2018-07-22T06:36:00.000Z,100159
2018-07-22T06:38:00.000Z,100156
2018-07-22T06:39:00.000Z,100160
2018-07-22T06:41:00.000Z,100164
2018-07-22T06:43:00.000Z,100168
2018-07-22T06:44:45.000Z,100166
2018-07-22T06:46:00.000Z,100167
2018-07-22T06:47:00.000Z,100169
2018-07-22T06:48:00.000Z,100170
2018-07-22T06:50:00.000Z,100171
2018-07-22T06:52:00.000Z,100167
2018-07-22T06:54:00.000Z,100173
2018-07-22T06:55:00.000Z,100171
2018-07-22T06:56:00.000Z,100170
2018-07-22T06:58:00.000Z,100164
2018-07-22T07:00:00.000Z,100166
2018-07-22T07:02:00.000Z,100170
2018-07-22T07:04:00.000Z,100168
2018-07-22T07:06:00.000Z,100177
2018-07-22T07:08:00.000Z,100180
2018-07-22T07:10:00.000Z,100185
2018-07-22T07:11:00.000Z,100179
2018-07-22T07:13:00.000Z,100180
2018-07-22T07:15:00.000Z,100182
2018-07-22T07:16:00.000Z,100180
2018-07-22T07:18:00.000Z,100190
2018-07-22T07:20:00.000Z,100184
2018-07-22T07:21:00.000Z,100189
2018-07-22T07:23:00.000Z,100192
2018-07-22T07:25:00.000Z,100196
2018-07-22T07:27:00.000Z,100189
2018-07-22T07:28:00.000Z,100192
2018-07-22T07:30:00.000Z,100195
2018-07-22T07:32:00.000Z,100188
2018-07-22T07:34:00.000Z,100193
2018-07-22T07:36:00.000Z,100197
2018-07-22T07:38:00.000Z,100195
2018-07-22T07:39:00.000Z,100197
2018-07-22T07:41:00.000Z,100199
2018-07-22T07:43:00.000Z,100194
2018-07-22T07:44:45.000Z,100193
2018-07-22T07:46:00.000Z,100197
2018-07-22T07:47:00.000Z,100198
2018-07-22T07:49:00.000Z,100194
2018-07-22T07:51:00.000Z,100201
2018-07-22T07:52:00.000Z,100196
2018-07-22T07:54:00.000Z,100206
2018-07-22T07:55:00.000Z,100209
2018-07-22T07:57:00.000Z,100202
2018-07-22T07:58:45.000Z,100194
2018-07-22T07:59:45.000Z,100201
2018-07-22T08:01:00.000Z,100198
2018-07-22T08:03:00.000Z,100203
2018-07-22T08:05:00.000Z,100194
2018-07-22T08:06:45.000Z,100197
2018-07-22T08:08:00.000Z,100198
2018-07-22T08:10:00.000Z,100202
2018-07-22T08:11:00.000Z,100198
2018-07-22T08:13:00.000Z,100197
2018-07-22T08:14:00.000Z,100201
2018-07-22T08:15:45.000Z,100200
2018-07-22T08:17:00.000Z,100204
2018-07-22T08:18:00.000Z,100194
2018-07-22T08:20:00.000Z,100203
2018-07-22T08:22:00.000Z,100202
2018-07-22T08:24:00.000Z,100199
2018-07-22T08:25:45.000Z,100198
2018-07-22T08:27:00.000Z,100203
2018-07-22T08:29:00.000Z,100198
2018-07-22T08:31:00.000Z,100203
2018-07-22T08:32:00.000Z,100202
2018-07-22T08:34:00.000Z,100197
2018-07-22T08:36:00.000Z,100196
2018-07-22T08:38:00.000Z,100200
2018-07-22T08:39:00.000Z,100195
2018-07-22T08:41:00.000Z,100199
2018-07-22T08:42:00.000Z,100199
2018-07-22T08:44:00.000Z,100203
2018-07-22T08:46:00.000Z,100207
2018-07-22T08:48:00.000Z,100202
2018-07-22T08:49:00.000Z,100200
2018-07-22T08:51:00.000Z,100205
2018-07-22T08:53:00.000Z,100204
2018-07-22T08:55:00.000Z,100203
2018-07-22T08:56:00.000Z,100203
2018-07-22T08:57:00.000Z,100203
2018-07-22T08:59:00.000Z,100206
2018-07-22T09:00:00.000Z,100209
2018-07-22T09:02:00.000Z,100207
2018-07-22T09:03:30.000Z,100210
2018-07-22T09:05:00.000Z,100215
2018-07-22T09:06:00.000Z,100213
2018-07-22T09:08:00.000Z,100212
2018-07-22T09:10:00.000Z,100215
2018-07-22T09:12:00.000Z,100211
2018-07-22T09:14:00.000Z,100214
2018-07-22T09:16:00.000Z,100216
2018-07-22T09:18:00.000Z,100218
2018-07-22T09:19:45.000Z,100220
2018-07-22T09:21:00.000Z,100225
2018-07-22T09:22:00.000Z,100222
2018-07-22T09:24:00.000Z,100229
2018-07-22T09:26:00.000Z,100228
2018-07-22T09:27:45.000Z,100233
2018-07-22T09:29:00.000Z,100230
2018-07-22T09:31:00.000Z,100229
2018-07-22T09:33:00.000Z,100233
2018-07-22T09:34:00.000Z,100233
2018-07-22T09:35:00.000Z,100234
2018-07-22T09:36:00.000Z,100236
2018-07-22T09:37:00.000Z,100238
2018-07-22T09:39:00.000Z,100228
2018-07-22T09:41:00.000Z,100238
2018-07-22T09:42:00.000Z,100231
2018-07-22T09:43:00.000Z,100234
2018-07-22T09:45:00.000Z,100234
2018-07-22T09:47:00.000Z,100231
2018-07-22T09:49:00.000Z,100231
2018-07-22T09:50:00.000Z,100233
2018-07-22T09:52:00.000Z,100232
2018-07-22T09:54:00.000Z,100231
2018-07-22T09:56:00.000Z,100236
2018-07-22T09:58:00.000Z,100230
2018-07-22T09:59:00.000Z,100237
2018-07-22T10:00:00.000Z,100235
2018-07-22T10:02:00.000Z,100234
2018-07-22T10:04:00.000Z,100239
2018-07-22T10:05:00.000Z,100239
2018-07-22T10:06:00.000Z,100240
2018-07-22T10:08:00.000Z,100237
2018-07-22T10:10:00.000Z,100234
2018-07-22T10:11:00.000Z,100236
2018-07-22T10:12:00.000Z,100231
2018-07-22T10:14:00.000Z,100234
2018-07-22T10:16:00.000Z,100229
2018-07-22T10:17:00.000Z,100228
2018-07-22T10:19:00.000Z,100230
2018-07-22T10:21:00.000Z,100226
2018-07-22T10:23:00.000Z,100227
2018-07-22T10:24:45.000Z,100225
2018-07-22T10:26:00.000Z,100225
2018-07-22T10:27:00.000Z,100228
2018-07-22T10:30:45.000Z,100224
2018-07-22T10:32:00.000Z,100227
2018-07-22T10:34:00.000Z,100227
2018-07-22T10:35:45.000Z,100225
2018-07-22T10:37:00.000Z,100223
2018-07-22T10:38:00.000Z,100225
2018-07-22T10:40:00.000Z,100225
2018-07-22T10:42:00.000Z,100230
2018-07-22T10:43:45.000Z,100227
2018-07-22T10:45:00.000Z,100230
2018-07-22T10:47:00.000Z,100227
2018-07-22T10:48:00.000Z,100229
2018-07-22T10:50:00.000Z,100236
2018-07-22T10:52:00.000Z,100229
2018-07-22T10:53:00.000Z,100231
2018-07-22T10:54:00.000Z,100234
2018-07-22T10:56:00.000Z,100225
2018-07-22T10:57:00.000Z,100228
2018-07-22T10:59:00.000Z,100229
2018-07-22T11:00:00.000Z,100231
2018-07-22T11:01:00.000Z,100224
2018-07-22T11:03:00.000Z,100233
2018-07-22T11:04:00.000Z,100227
2018-07-22T11:05:45.000Z,100226
2018-07-22T11:07:00.000Z,100228
2018-07-22T11:08:00.000Z,100227
2018-07-22T11:09:00.000Z,100227
2018-07-22T11:11:00.000Z,100223
2018-07-22T11:13:00.000Z,100225
2018-07-22T11:14:00.000Z,100224
2018-07-22T11:15:00.000Z,100216
2018-07-22T11:17:00.000Z,100218
2018-07-22T11:18:00.000Z,100220
2018-07-22T11:20:00.000Z,100217
2018-07-22T11:22:00.000Z,100218
2018-07-22T11:23:00.000Z,100222
2018-07-22T11:25:00.000Z,100223
2018-07-22T11:27:00.000Z,100222
2018-07-22T11:28:00.000Z,100221
2018-07-22T11:30:00.000Z,100218
2018-07-22T11:32:00.000Z,100221
2018-07-22T11:34:00.000Z,100219
2018-07-22T11:36:00.000Z,100216
2018-07-22T11:38:00.000Z,100216
2018-07-22T11:39:45.000Z,100212
2018-07-22T11:41:00.000Z,100216
2018-07-22T11:42:45.000Z,100215
2018-07-22T11:44:00.000Z,100209
2018-07-22T11:46:00.000Z,100214
2018-07-22T11:47:00.000Z,100208
2018-07-22T11:48:00.000Z,100206
2018-07-22T11:49:45.000Z,100211
2018-07-22T11:51:00.000Z,100209
2018-07-22T11:52:00.000Z,100217
2018-07-22T11:54:00.000Z,100211
2018-07-22T11:56:00.000Z,100208
2018-07-22T11:57:00.000Z,100202
2018-07-22T11:59:00.000Z,100203
2018-07-22T12:01:00.000Z,100201
2018-07-22T12:03:00.000Z,100201
2018-07-22T12:04:45.000Z,100199
2018-07-22T12:06:00.000Z,100201
2018-07-22T12:07:00.000Z,100197
2018-07-22T12:08:00.000Z,100198
2018-07-22T12:10:00.000Z,100194
2018-07-22T12:11:00.000Z,100196
2018-07-22T12:13:00.000Z,100192
2018-07-22T12:14:45.000Z,100189
2018-07-22T12:16:00.000Z,100186
2018-07-22T12:17:00.000Z,100190
2018-07-22T12:18:45.000Z,100187
2018-07-22T12:20:00.000Z,100180
2018-07-22T12:22:00.000Z,100177
2018-07-22T12:24:00.000Z,100187
2018-07-22T12:26:00.000Z,100181
2018-07-22T12:28:00.000Z,100178
2018-07-22T12:29:00.000Z,100170
2018-07-22T12:31:00.000Z,100175
2018-07-22T12:33:00.000Z,100165
2018-07-22T12:34:45.000Z,100162
2018-07-22T12:36:00.000Z,100169
2018-07-22T12:38:00.000Z,100165
2018-07-22T12:40:00.000Z,100163
2018-07-22T12:42:00.000Z,100156
2018-07-22T12:43:00.000Z,100167
2018-07-22T12:44:00.000Z,100156
2018-07-22T12:46:00.000Z,100159
2018-07-22T12:48:00.000Z,100155
2018-07-22T12:49:00.000Z,100157
2018-07-22T12:50:00.000Z,100163
2018-07-22T12:52:00.000Z,100159
2018-07-22T12:54:00.000Z,100155
2018-07-22T12:56:00.000Z,100150
2018-07-22T12:57:45.000Z,100155
2018-07-22T12:59:00.000Z,100156
2018-07-22T13:01:00.000Z,100153
2018-07-22T13:02:00.000Z,100153
2018-07-22T13:03:00.000Z,100149
2018-07-22T13:05:00.000Z,100151
2018-07-22T13:06:00.000Z,100152
2018-07-22T13:08:00.000Z,100161
2018-07-22T13:09:45.000Z,100158
2018-07-22T13:11:00.000Z,100159
2018-07-22T13:12:00.000Z,100154
2018-07-22T13:14:00.000Z,100152
2018-07-22T13:16:00.000Z,100153
2018-07-22T13:18:00.000Z,100157
2018-07-22T13:20:00.000Z,100150
2018-07-22T13:21:00.000Z,100160
2018-07-22T13:23:00.000Z,100156
2018-07-22T13:24:00.000Z,100150
2018-07-22T13:25:00.000Z,100149
2018-07-22T13:27:00.000Z,100146
2018-07-22T13:29:00.000Z,100147
2018-07-22T13:30:00.000Z,100153
2018-07-22T13:32:00.000Z,100155
2018-07-22T13:33:30.000Z,100155
2018-07-22T13:35:00.000Z,100154
2018-07-22T13:36:00.000Z,100152
2018-07-22T13:37:45.000Z,100154
2018-07-22T13:39:00.000Z,100154
2018-07-22T13:41:00.000Z,100164
2018-07-22T13:43:00.000Z,100157
2018-07-22T13:45:00.000Z,100163
2018-07-22T13:46:45.000Z,100162
2018-07-22T13:48:00.000Z,100164
2018-07-22T13:50:00.000Z,100164
2018-07-22T13:51:00.000Z,100165
2018-07-22T13:53:00.000Z,100166
2018-07-22T13:54:45.000Z,100160
2018-07-22T13:56:00.000Z,100162
2018-07-22T13:57:00.000Z,100166
2018-07-22T13:59:00.000Z,100165
2018-07-22T14:00:00.000Z,100162
2018-07-22T14:02:00.000Z,100161
2018-07-22T14:04:00.000Z,100161
2018-07-22T14:06:00.000Z,100162
2018-07-22T14:08:00.000Z,100161
2018-07-22T14:10:00.000Z,100163
2018-07-22T14:12:00.000Z,100166
2018-07-22T14:14:00.000Z,100164
2018-07-22T14:15:00.000Z,100164
2018-07-22T14:17:00.000Z,100163
2018-07-22T14:19:00.000Z,100168
2018-07-22T14:20:00.000Z,100167
2018-07-22T14:22:00.000Z,100164
2018-07-22T14:23:00.000Z,100163
2018-07-22T14:24:00.000Z,100168
2018-07-22T14:25:00.000Z,100159
2018-07-22T14:26:00.000Z,100162
2018-07-22T14:28:00.000Z,100164
2018-07-22T14:29:00.000Z,100174
2018-07-22T14:30:00.000Z,100166
2018-07-22T14:32:00.000Z,100165
2018-07-22T14:33:00.000Z,100165
2018-07-22T14:35:00.000Z,100168
2018-07-22T14:36:30.000Z,100165
2018-07-22T14:38:00.000Z,100164
2018-07-22T14:39:00.000Z,100164
2018-07-22T14:40:45.000Z,100160
2018-07-22T14:42:00.000Z,100163
2018-07-22T14:44:00.000Z,100164
2018-07-22T14:46:00.000Z,100162
2018-07-22T14:47:00.000Z,100162
2018-07-22T14:48:00.000Z,100168
2018-07-22T14:49:45.000Z,100174
2018-07-22T14:51:00.000Z,100167
2018-07-22T14:52:00.000Z,100172
2018-07-22T14:54:00.000Z,100174
2018-07-22T14:55:45.000Z,100176
2018-07-22T14:57:00.000Z,100179
2018-07-22T14:58:00.000Z,100181
2018-07-22T14:59:00.000Z,100184
2018-07-22T15:00:00.000Z,100187
2018-07-22T15:02:00.000Z,100186
2018-07-22T15:04:00.000Z,100185
2018-07-22T15:05:00.000Z,100193
2018-07-22T15:07:00.000Z,100184
2018-07-22T15:09:00.000Z,100182
2018-07-22T15:10:45.000Z,100183
2018-07-22T15:12:00.000Z,100190
2018-07-22T15:13:00.000Z,100190
2018-07-22T15:15:00.000Z,100190
2018-07-22T15:17:00.000Z,100189
2018-07-22T15:19:00.000Z,100192
2018-07-22T15:21:00.000Z,100192
2018-07-22T15:23:00.000Z,100195
2018-07-22T15:24:00.000Z,100195
2018-07-22T15:26:00.000Z,100195
2018-07-22T15:27:00.000Z,100196
2018-07-22T15:29:00.000Z,100194
2018-07-22T15:30:00.000Z,100190
2018-07-22T15:32:00.000Z,100191
2018-07-22T15:33:00.000Z,100196
2018-07-22T15:35:00.000Z,100195
2018-07-22T15:37:00.000Z,100195
2018-07-22T15:38:00.000Z,100193
2018-07-22T15:40:00.000Z,100198
2018-07-22T15:41:00.000Z,100196
2018-07-22T15:43:00.000Z,100191
2018-07-22T15:44:00.000Z,100196
2018-07-22T15:46:00.000Z,100196
2018-07-22T15:48:00.000Z,100192
2018-07-22T15:50:00.000Z,100186
2018-07-22T15:51:01.000Z,100193
2018-07-22T15:53:01.000Z,100192
2018-07-22T15:55:01.000Z,100194
2018-07-22T15:56:45.000Z,100195
2018-07-22T15:58:01.000Z,100199
2018-07-22T16:00:01.000Z,100192
2018-07-22T16:02:01.000Z,100193
2018-07-22T16:03:45.000Z,100198
2018-07-22T16:05:01.000Z,100201
2018-07-22T16:06:45.000Z,100196
2018-07-22T16:08:01.000Z,100198
2018-07-22T16:10:01.000Z,100192
2018-07-22T16:12:01.000Z,100192
2018-07-22T16:14:01.000Z,100193
2018-07-22T16:16:01.000Z,100196
2018-07-22T16:18:01.000Z,100189
2018-07-22T16:19:01.000Z,100195
2018-07-22T16:21:01.000Z,100193
2018-07-22T16:22:01.000Z,100192
2018-07-22T16:24:01.000Z,100190
2018-07-22T16:26:01.000Z,100190
2018-07-22T16:27:01.000Z,100192
2018-07-22T16:29:01.000Z,100194
2018-07-22T16:30:01.000Z,100186
2018-07-22T16:31:46.000Z,100192
2018-07-22T16:33:01.000Z,100196
2018-07-22T16:35:01.000Z,100191
2018-07-22T16:36:01.000Z,100194
2018-07-22T16:38:01.000Z,100189
2018-07-22T16:40:01.000Z,100191
2018-07-22T16:41:45.000Z,100186
2018-07-22T16:43:01.000Z,100191
2018-07-22T16:44:45.000Z,100190
2018-07-22T16:46:01.000Z,100186
2018-07-22T16:48:01.000Z,100188
2018-07-22T16:50:01.000Z,100189
2018-07-22T16:52:01.000Z,100186
2018-07-22T16:53:45.000Z,100182
2018-07-22T16:55:00.000Z,100180
2018-07-22T16:56:00.000Z,100182
2018-07-22T16:58:00.000Z,100180
2018-07-22T17:00:00.000Z,100180
2018-07-22T17:02:00.000Z,100184
2018-07-22T17:03:00.000Z,100182
2018-07-22T17:05:00.000Z,100183
2018-07-22T17:07:00.000Z,100178
2018-07-22T17:09:00.000Z,100175
2018-07-22T17:11:00.000Z,100179
2018-07-22T17:13:00.000Z,100174
2018-07-22T17:15:00.000Z,100179
2018-07-22T17:17:00.000Z,100182
2018-07-22T17:19:00.000Z,100182
2018-07-22T17:21:00.000Z,100187
2018-07-22T17:23:00.000Z,100187
2018-07-22T17:25:00.000Z,100186
2018-07-22T17:26:00.000Z,100191
2018-07-22T17:27:45.000Z,100186
2018-07-22T17:29:00.000Z,100184
2018-07-22T17:30:45.000Z,100186
2018-07-22T17:32:00.000Z,100190
2018-07-22T17:33:00.000Z,100191
2018-07-22T17:35:00.000Z,100186
2018-07-22T17:36:00.000Z,100189
2018-07-22T17:38:00.000Z,100187
2018-07-22T17:40:00.000Z,100191
2018-07-22T17:41:45.000Z,100191
2018-07-22T17:43:00.000Z,100190
2018-07-22T17:45:00.000Z,100190
2018-07-22T17:46:00.000Z,100193
2018-07-22T17:47:45.000Z,100193
2018-07-22T17:49:00.000Z,100186
2018-07-22T17:50:00.000Z,100187
2018-07-22T17:52:00.000Z,100193
2018-07-22T17:54:00.000Z,100185
2018-07-22T17:55:00.000Z,100187
2018-07-22T17:57:00.000Z,100191
2018-07-22T17:58:00.000Z,100197
2018-07-22T18:00:00.000Z,100191
2018-07-22T18:02:00.000Z,100189
2018-07-22T18:04:00.000Z,100191
2018-07-22T18:06:00.000Z,100188
2018-07-22T18:07:00.000Z,100186
2018-07-22T18:09:00.000Z,100189
2018-07-22T18:10:00.000Z,100188
2018-07-22T18:12:00.000Z,100189
2018-07-22T18:14:00.000Z,100191
2018-07-22T18:15:30.000Z,100192
2018-07-22T18:17:00.000Z,100194
2018-07-22T18:18:00.000Z,100194
2018-07-22T18:19:45.000Z,100196
2018-07-22T18:21:00.000Z,100196
2018-07-22T18:23:00.000Z,100198
2018-07-22T18:24:00.000Z,100195
2018-07-22T18:26:00.000Z,100196
2018-07-22T18:27:45.000Z,100198
2018-07-22T18:29:00.000Z,100196
2018-07-22T18:31:00.000Z,100196
2018-07-22T18:33:00.000Z,100194
2018-07-22T18:35:00.000Z,100198
2018-07-22T18:36:00.000Z,100201
2018-07-22T18:37:45.000Z,100197
2018-07-22T18:39:00.000Z,100200
2018-07-22T18:41:00.000Z,100203
2018-07-22T18:43:00.000Z,100203
2018-07-22T18:44:45.000Z,100205
2018-07-22T18:46:00.000Z,100209
2018-07-22T18:48:00.000Z,100203
2018-07-22T18:50:00.000Z,100206
2018-07-22T18:51:00.000Z,100206
2018-07-22T18:53:00.000Z,100204
2018-07-22T18:55:00.000Z,100205
2018-07-22T18:56:45.000Z,100177
2018-07-22T18:58:00.000Z,100206
2018-07-22T19:00:00.000Z,100213
2018-07-22T19:01:30.000Z,100213
2018-07-22T19:03:00.000Z,100216
2018-07-22T19:05:00.000Z,100214
2018-07-22T19:07:00.000Z,100211
2018-07-22T19:08:00.000Z,100221
2018-07-22T19:10:00.000Z,100217
2018-07-22T19:12:00.000Z,100221
2018-07-22T19:13:00.000Z,100222
2018-07-22T19:14:45.000Z,100219
2018-07-22T19:16:00.000Z,100220
2018-07-22T19:17:45.000Z,100223
2018-07-22T19:20:00.000Z,100225
2018-07-22T19:21:00.000Z,100225
2018-07-22T19:22:45.000Z,100226
2018-07-22T19:24:00.000Z,100225
2018-07-22T19:25:45.000Z,100231
2018-07-22T19:27:00.000Z,100225
2018-07-22T19:29:00.000Z,100228
2018-07-22T19:31:00.000Z,100234
2018-07-22T19:32:45.000Z,100215
2018-07-22T19:35:00.000Z,100241
2018-07-22T19:36:00.000Z,100240
2018-07-22T19:38:00.000Z,100241
2018-07-22T19:40:00.000Z,100239
2018-07-22T19:41:45.000Z,100248
2018-07-22T19:43:00.000Z,100244
2018-07-22T19:44:30.000Z,100249
2018-07-22T19:46:00.000Z,100250
2018-07-22T19:47:30.000Z,100248
2018-07-22T19:49:00.000Z,100248
2018-07-22T19:51:00.000Z,100252
2018-07-22T19:53:00.000Z,100256
2018-07-22T19:54:00.000Z,100256
2018-07-22T19:56:00.000Z,100256
2018-07-22T19:57:00.000Z,100256
2018-07-22T19:58:45.000Z,100252
2018-07-22T20:00:00.000Z,100254
2018-07-22T20:01:00.000Z,100257
2018-07-22T20:03:00.000Z,100259
2018-07-22T20:04:45.000Z,100262
2018-07-22T20:06:00.000Z,100268
2018-07-22T20:08:00.000Z,100263
2018-07-22T20:10:00.000Z,100263
2018-07-22T20:12:00.000Z,100268
2018-07-22T20:14:00.000Z,100268